Time;durP1;ratioP1;P1;durP2;ratioP2;P2;SDS_P1;SDS_P2;PMS_P1;PMS_P2;Temp;Humidity;BMP_temperature;BMP_pressure;BME280_temperature;BME280_humidity;BME280_pressure;Samples;Min_cycle;Max_cycle;Signal;HPM_P1;HPM_P2
2022/09/26 00:01:07;;;;;;;9.13;5.82;;;;;;;9.49;100.00;100984.72;6097730;23;20010;-77
2022/09/26 00:03:34;;;;;;;9.20;5.40;;;;;;;9.42;100.00;100967.94;6097433;23;20006;-78
2022/09/26 00:06:01;;;;;;;7.20;4.88;;;;;;;9.53;100.00;100977.63;6097279;23;20026;-78
2022/09/26 00:08:27;;;;;;;7.75;5.30;;;;;;;9.54;100.00;100970.72;6097313;23;20133;-77
2022/09/26 00:11:00;;;;;;;9.57;5.88;;;;;;;9.55;100.00;100975.00;6097274;23;20013;-77
2022/09/26 00:13:27;;;;;;;8.95;5.90;;;;;;;9.55;100.00;100965.50;6097298;23;20010;-78
2022/09/26 00:15:54;;;;;;;7.90;4.88;;;;;;;9.56;100.00;100963.75;6097489;23;20038;-78
2022/09/26 00:18:19;;;;;;;8.35;5.43;;;;;;;9.58;100.00;100955.03;6071831;23;20006;-77
2022/09/26 00:20:45;;;;;;;9.70;5.00;;;;;;;9.52;100.00;100947.63;6097297;23;20041;-77
2022/09/26 00:23:11;;;;;;;10.20;5.50;;;;;;;9.60;100.00;100942.03;6097576;23;20451;-78
2022/09/26 00:25:36;;;;;;;8.88;5.28;;;;;;;9.29;100.00;100893.97;6097237;23;20020;-77
2022/09/26 00:28:01;;;;;;;9.80;5.55;;;;;;;9.61;100.00;100936.78;6097181;23;20011;-78
2022/09/26 00:30:26;;;;;;;8.55;5.68;;;;;;;9.63;100.00;100931.53;6097451;23;20009;-77
2022/09/26 00:32:52;;;;;;;9.77;5.80;;;;;;;9.55;100.00;100911.38;6097500;23;20003;-75
2022/09/26 00:35:17;;;;;;;9.45;5.50;;;;;;;9.66;100.00;100924.47;6097024;23;20328;-78
2022/09/26 00:37:42;;;;;;;9.13;5.55;;;;;;;9.67;100.00;100926.13;6096830;23;20010;-77
2022/09/26 00:40:08;;;;;;;8.80;5.28;;;;;;;9.69;100.00;100923.47;6097393;23;20010;-78
2022/09/26 00:42:33;;;;;;;8.50;5.38;;;;;;;9.50;100.00;100897.91;6096844;23;20006;-77
2022/09/26 00:44:59;;;;;;;8.52;5.88;;;;;;;9.49;100.00;100878.22;6097355;23;20006;-77
2022/09/26 00:47:49;;;;;;;9.65;6.32;;;;;;;9.73;100.00;100914.63;6097107;23;20488;-77
2022/09/26 00:50:25;;;;;;;8.95;5.60;;;;;;;9.72;100.00;100907.81;6097167;23;20010;-78
2022/09/26 00:53:01;;;;;;;10.68;5.47;;;;;;;9.72;100.00;100902.66;6072781;23;20429;-78
2022/09/26 00:55:33;;;;;;;9.02;5.88;;;;;;;9.71;100.00;100901.00;6097193;23;20013;-78
2022/09/26 00:58:21;;;;;;;10.00;6.47;;;;;;;9.62;100.00;100894.63;6096947;23;20010;-77
2022/09/26 01:00:48;;;;;;;10.52;6.32;;;;;;;9.60;100.00;100880.16;6096363;23;20002;-78
2022/09/26 01:03:15;;;;;;;10.02;5.82;;;;;;;9.52;100.00;100867.72;6097155;23;20425;-77
2022/09/26 01:05:43;;;;;;;9.85;6.57;;;;;;;9.55;100.00;100871.88;6097000;23;20014;-78
2022/09/26 01:08:09;;;;;;;10.52;6.50;;;;;;;9.59;100.00;100865.63;6097418;23;20030;-77
2022/09/26 01:10:36;;;;;;;8.73;6.68;;;;;;;9.56;100.00;100858.91;6097017;23;20005;-75
2022/09/26 01:13:01;;;;;;;9.60;5.97;;;;;;;9.42;100.00;100836.47;6097228;23;20010;-77
2022/09/26 01:15:27;;;;;;;11.02;6.35;;;;;;;9.56;100.00;100855.50;6096858;23;20061;-78
2022/09/26 01:17:54;;;;;;;9.63;6.40;;;;;;;9.44;100.00;100829.50;6096827;23;20030;-78
2022/09/26 01:20:32;;;;;;;10.43;6.53;;;;;;;9.43;100.00;100824.41;6097091;23;20333;-78
2022/09/26 01:23:15;;;;;;;11.20;7.13;;;;;;;9.59;100.00;100847.56;6099106;23;20002;-77
2022/09/26 01:26:09;;;;;;;11.43;7.47;;;;;;;9.60;100.00;100832.00;6099053;23;20007;-77
2022/09/26 01:29:14;;;;;;;11.07;6.88;;;;;;;9.68;100.00;100829.81;5958940;24;20091;-78
2022/09/26 01:34:53;;;;;;;15.00;7.63;;;;;;;9.62;100.00;100794.06;5982438;24;20068;-77
2022/09/26 01:37:58;;;;;;;11.88;7.22;;;;;;;9.72;100.00;100796.91;5982390;24;20018;-76
2022/09/26 01:40:43;;;;;;;11.80;6.80;;;;;;;9.71;100.00;100797.84;5982381;24;20020;-77
2022/09/26 01:43:26;;;;;;;12.63;6.55;;;;;;;9.70;100.00;100789.28;5982255;24;20019;-78
2022/09/26 01:46:04;;;;;;;10.55;6.32;;;;;;;9.72;100.00;100786.59;5982305;24;20064;-77
2022/09/26 01:48:36;;;;;;;11.90;6.30;;;;;;;9.65;100.00;100781.00;5982372;24;20089;-78
2022/09/26 01:51:14;;;;;;;12.95;5.90;;;;;;;9.69;100.00;100766.16;5982163;24;20402;-77
2022/09/26 01:54:00;;;;;;;8.90;5.45;;;;;;;9.68;100.00;100767.91;5982331;24;20009;-78
2022/09/26 01:56:30;;;;;;;8.45;5.57;;;;;;;9.66;100.00;100764.63;5982228;24;20020;-78
2022/09/26 01:59:04;;;;;;;10.98;5.32;;;;;;;9.64;100.00;100761.31;5981824;24;20095;-77
2022/09/26 02:01:34;;;;;;;9.38;5.10;;;;;;;9.63;100.00;100751.06;5982124;24;20015;-80
2022/09/26 02:04:07;;;;;;;9.30;5.03;;;;;;;9.65;100.00;100749.25;5993357;23;20023;-78
2022/09/26 02:06:42;;;;;;;9.52;5.00;;;;;;;9.64;100.00;100750.16;6099091;23;20086;-78
2022/09/26 02:09:13;;;;;;;8.07;5.00;;;;;;;9.63;100.00;100741.56;6098554;23;20006;-80
2022/09/26 02:11:42;;;;;;;9.52;4.95;;;;;;;9.47;99.89;100718.47;6098813;23;20010;-80
2022/09/26 02:14:26;;;;;;;9.23;4.60;;;;;;;9.46;99.63;100714.25;6098333;23;20081;-79
2022/09/26 02:16:56;;;;;;;9.15;5.45;;;;;;;9.57;100.00;100726.50;6098465;23;20433;-78
2022/09/26 02:19:27;;;;;;;10.25;4.80;;;;;;;9.48;99.60;100709.81;6098774;23;20053;-81
2022/09/26 02:21:53;;;;;;;8.07;4.20;;;;;;;9.58;99.65;100719.59;6098336;23;20016;-77
2022/09/26 02:24:19;;;;;;;10.40;4.20;;;;;;;9.49;99.82;100690.03;6098376;23;20010;-81
2022/09/26 02:26:44;;;;;;;8.35;4.40;;;;;;;9.37;99.05;100667.59;6098187;23;20077;-78
2022/09/26 02:29:13;;;;;;;9.52;4.45;;;;;;;9.52;99.11;100689.00;6098339;23;20081;-78
2022/09/26 02:31:48;;;;;;;6.93;4.22;;;;;;;9.66;98.88;100705.31;6098191;23;20006;-82
2022/09/26 02:34:13;;;;;;;10.25;4.70;;;;;;;9.68;98.43;100700.88;6098160;23;20065;-79
2022/09/26 02:36:38;;;;;;;8.95;3.85;;;;;;;9.70;98.28;100691.31;6098584;23;20361;-79
2022/09/26 02:39:04;;;;;;;8.85;4.35;;;;;;;9.68;97.77;100687.16;6098081;23;20014;-78
2022/09/26 02:41:37;;;;;;;8.32;3.63;;;;;;;9.74;97.58;100691.97;6072548;23;20022;-76
2022/09/26 02:44:22;;;;;;;7.95;4.15;;;;;;;9.73;97.25;100685.97;6098048;23;20329;-77
2022/09/26 02:47:22;;;;;;;8.75;4.18;;;;;;;9.74;97.01;100685.06;6098065;23;20492;-78
2022/09/26 02:50:18;;;;;;;10.50;4.40;;;;;;;9.78;96.99;100683.09;6098037;23;20002;-77
2022/09/26 02:52:54;;;;;;;9.05;3.72;;;;;;;9.68;96.36;100651.91;6098234;23;20014;-77
2022/09/26 02:55:21;;;;;;;6.55;3.60;;;;;;;9.53;95.29;100632.22;6097888;23;20007;-78
2022/09/26 02:58:07;;;;;;;7.55;3.92;;;;;;;9.81;95.91;100664.84;6097918;23;20006;-78
2022/09/26 03:01:13;;;;;;;8.07;3.65;;;;;;;9.85;95.84;100660.34;6097749;23;20060;-76
2022/09/26 03:04:03;;;;;;;9.68;3.50;;;;;;;9.76;95.12;100641.13;5981480;24;20057;-77
2022/09/26 03:06:34;;;;;;;10.20;3.58;;;;;;;9.82;95.20;100650.19;5981524;24;20018;-77
2022/09/26 03:09:02;;;;;;;8.15;3.42;;;;;;;9.81;95.14;100641.63;5981256;24;20008;-77
2022/09/26 03:11:29;;;;;;;5.82;3.35;;;;;;;9.83;95.86;100652.69;5981380;24;20016;-78
2022/09/26 03:13:56;;;;;;;9.57;3.40;;;;;;;9.70;96.09;100632.00;5981249;24;20084;-77
2022/09/26 03:16:23;;;;;;;7.07;3.85;;;;;;;9.84;96.61;100648.38;5981357;24;20162;-77
2022/09/26 03:18:55;;;;;;;6.00;2.97;;;;;;;9.74;96.42;100627.50;5981368;24;20009;-77
2022/09/26 03:21:20;;;;;;;;;;;;;;;9.82;96.66;100634.72;5981731;24;20012;-77
2022/09/26 03:23:46;;;;;;;10.45;3.67;;;;;;;9.76;96.68;100629.03;5981151;24;19916;-78
2022/09/26 03:26:16;;;;;;;8.13;3.00;;;;;;;9.77;96.14;100619.56;5981461;24;20026;-78
2022/09/26 03:28:41;;;;;;;7.20;3.05;;;;;;;9.69;96.06;100601.16;5981093;24;20012;-77
2022/09/26 03:31:07;;;;;;;7.75;2.70;;;;;;;9.75;95.72;100609.34;5981379;24;20111;-76
2022/09/26 03:33:33;;;;;;;5.22;2.97;;;;;;;9.76;95.80;100603.25;5981160;24;20020;-77
2022/09/26 03:35:58;;;;;;;6.30;2.88;;;;;;;9.59;95.84;100569.97;5981061;24;20012;-77
2022/09/26 03:38:24;;;;;;;10.20;3.88;;;;;;;9.76;95.31;100594.69;5980803;24;20016;-77
2022/09/26 03:40:50;;;;;;;5.80;2.40;;;;;;;9.75;95.37;100593.03;6063408;23;20007;-77
2022/09/26 03:43:15;;;;;;;7.63;3.33;;;;;;;9.64;95.68;100572.28;6097311;23;20013;-78
2022/09/26 03:45:40;;;;;;;5.88;2.50;;;;;;;9.72;96.05;100588.88;6071702;23;20077;-77
2022/09/26 03:48:05;;;;;;;8.63;3.30;;;;;;;9.71;95.89;100589.00;6097280;23;20485;-77
2022/09/26 03:50:32;;;;;;;6.72;2.95;;;;;;;9.59;96.07;100567.38;6071716;23;20007;-77
2022/09/26 03:52:59;;;;;;;7.20;2.75;;;;;;;9.63;95.92;100568.00;6071698;23;20007;-77
2022/09/26 03:55:24;;;;;;;6.95;2.92;;;;;;;9.69;95.92;100576.19;6097658;23;20010;-78
2022/09/26 03:57:50;;;;;;;9.23;3.30;;;;;;;9.67;95.97;100574.66;6097422;23;20002;-77
2022/09/26 04:00:15;;;;;;;7.25;2.70;;;;;;;9.63;96.02;100562.84;6097184;23;19998;-78
2022/09/26 04:02:40;;;;;;;7.25;2.40;;;;;;;9.56;96.15;100552.13;6097589;23;20417;-78
2022/09/26 04:05:06;;;;;;;6.93;3.10;;;;;;;9.53;95.69;100539.41;6097166;23;20009;-77
2022/09/26 04:07:31;;;;;;;9.68;3.15;;;;;;;9.47;95.34;100530.31;6097274;23;20026;-77
2022/09/26 04:09:56;;;;;;;5.47;2.45;;;;;;;9.61;96.40;100552.66;6097515;23;20010;-78
2022/09/26 04:12:22;;;;;;;4.80;2.47;;;;;;;9.61;95.94;100547.50;6071471;23;20333;-77
2022/09/26 04:14:47;;;;;;;6.22;2.75;;;;;;;9.61;96.08;100533.78;6096904;23;20009;-78
2022/09/26 04:17:12;;;;;;;8.30;3.20;;;;;;;9.60;95.46;100522.63;6097289;23;20002;-77
2022/09/26 04:19:39;;;;;;;5.55;3.20;;;;;;;9.57;95.49;100509.94;6097026;23;20002;-78
2022/09/26 04:22:07;;;;;;;7.90;3.13;;;;;;;9.53;95.66;100502.50;6097132;23;20006;-78
2022/09/26 04:24:32;;;;;;;8.45;3.80;;;;;;;9.59;95.58;100513.25;6097244;23;20349;-78
2022/09/26 04:26:59;;;;;;;6.68;3.35;;;;;;;9.45;96.09;100483.22;6096981;23;20006;-76
2022/09/26 04:29:26;;;;;;;6.60;2.95;;;;;;;9.55;95.09;100496.34;6096836;23;20002;-79
2022/09/26 04:31:51;;;;;;;9.68;3.00;;;;;;;9.59;95.26;100500.38;6097048;23;19998;-77
2022/09/26 04:34:16;;;;;;;8.02;3.25;;;;;;;9.59;95.98;100496.97;6097043;23;20057;-78
2022/09/26 04:36:42;;;;;;;5.35;3.05;;;;;;;9.47;96.20;100468.47;6097041;23;20128;-76
2022/09/26 04:39:08;;;;;;;6.95;4.00;;;;;;;9.58;96.08;100479.84;6096721;23;20014;-76
2022/09/26 04:41:33;;;;;;;6.10;3.15;;;;;;;9.58;95.51;100477.25;6096977;23;20002;-77
2022/09/26 04:43:59;;;;;;;8.88;3.90;;;;;;;9.45;95.44;100451.47;6097113;23;20006;-77
2022/09/26 04:46:27;;;;;;;10.23;3.67;;;;;;;9.39;95.88;100434.63;6096604;23;20010;-77
2022/09/26 04:48:55;;;;;;;8.77;4.03;;;;;;;9.60;95.70;100460.75;6097018;23;20006;-77
2022/09/26 04:51:23;;;;;;;8.25;3.67;;;;;;;9.40;95.95;100413.09;6097247;23;20325;-73
2022/09/26 04:53:49;;;;;;;7.13;3.42;;;;;;;9.44;96.00;100408.56;6097290;23;20070;-73
2022/09/26 04:56:16;;;;;;;10.82;3.90;;;;;;;9.53;97.61;100422.59;6097505;23;20007;-79
2022/09/26 04:58:42;;;;;;;9.85;3.85;;;;;;;9.55;97.01;100425.91;6095395;23;20464;-75
2022/09/26 05:01:11;;;;;;;8.93;4.05;;;;;;;9.58;97.79;100417.97;6097022;23;20073;-77
2022/09/26 05:03:36;;;;;;;10.77;4.03;;;;;;;9.57;97.46;100421.47;6097127;23;20012;-80
2022/09/26 05:06:04;;;;;;;7.22;3.22;;;;;;;9.55;97.97;100406.13;6071011;23;20046;-80
2022/09/26 05:08:30;;;;;;;8.43;3.90;;;;;;;9.37;97.96;100386.69;6096971;23;20026;-81
2022/09/26 05:10:56;;;;;;;8.90;3.40;;;;;;;9.52;98.78;100405.47;6096917;23;20006;-81
2022/09/26 05:13:22;;;;;;;6.50;3.80;;;;;;;9.49;98.68;100397.03;6097364;23;20037;-81
2022/09/26 05:15:49;;;;;;;8.82;3.85;;;;;;;9.49;99.32;100391.03;6070811;23;20336;-81
2022/09/26 05:18:15;;;;;;;11.45;4.63;;;;;;;9.47;99.50;100390.31;6097123;23;20006;-80
2022/09/26 05:20:44;;;;;;;6.32;3.53;;;;;;;9.32;98.40;100368.94;6096818;23;20006;-79
2022/09/26 05:23:09;;;;;;;8.23;3.50;;;;;;;9.35;98.85;100370.50;6096857;23;20002;-80
2022/09/26 05:28:24;;;;;;;10.30;3.90;;;;;;;9.41;99.34;100381.22;6096943;23;20396;-79
2022/09/26 05:30:51;;;;;;;9.73;3.75;;;;;;;9.40;99.02;100374.44;6096825;23;19999;-82
2022/09/26 05:33:18;;;;;;;10.35;3.97;;;;;;;9.31;99.34;100353.59;6097169;23;20376;-82
2022/09/26 05:35:47;;;;;;;7.15;3.85;;;;;;;9.21;99.53;100335.31;6096746;23;20344;-81
2022/09/26 05:38:12;;;;;;;8.45;4.28;;;;;;;9.45;98.67;100369.00;6096591;23;20023;-80
2022/09/26 05:40:56;;;;;;;8.20;3.80;;;;;;;9.46;98.72;100374.03;6097161;23;20006;-82
2022/09/26 05:43:26;;;;;;;9.15;4.47;;;;;;;9.48;97.90;100369.59;6096694;23;20005;-81
2022/09/26 05:46:03;;;;;;;11.52;4.07;;;;;;;9.42;98.56;100359.69;6096654;23;20065;-77
2022/09/26 05:48:31;;;;;;;8.18;4.00;;;;;;;9.32;98.82;100335.44;6096589;23;20007;-78
2022/09/26 05:51:01;;;;;;;9.90;3.78;;;;;;;9.20;98.55;100313.06;6096784;23;20079;-77
2022/09/26 05:53:27;;;;;;;10.47;4.07;;;;;;;9.44;98.36;100355.28;6071286;23;20005;-76
2022/09/26 05:55:52;;;;;;;9.98;3.85;;;;;;;9.45;98.17;100344.03;6070632;23;20262;-79
2022/09/26 05:58:17;;;;;;;9.98;4.05;;;;;;;9.57;98.38;100362.19;6096646;23;20329;-81
2022/09/26 06:00:46;;;;;;;12.80;4.53;;;;;;;9.54;98.51;100357.22;6096589;23;20007;-80
2022/09/26 06:03:13;;;;;;;8.43;4.00;;;;;;;9.51;99.41;100335.06;6071106;23;20003;-78
2022/09/26 06:05:38;;;;;;;8.70;4.18;;;;;;;9.43;98.58;100314.13;6097040;23;20013;-81
2022/09/26 06:08:04;;;;;;;9.13;4.50;;;;;;;9.58;98.48;100336.31;6072608;23;20085;-81
2022/09/26 06:10:29;;;;;;;9.20;3.85;;;;;;;9.61;98.51;100324.97;6098926;23;20038;-82
2022/09/26 06:13:00;;;;;;;11.40;5.22;;;;;;;9.62;98.32;100321.44;6098409;23;20010;-80
2022/09/26 06:15:25;;;;;;;11.10;4.25;;;;;;;9.53;98.22;100291.97;6098617;23;20329;-80
2022/09/26 06:18:03;;;;;;;10.43;4.60;;;;;;;9.49;98.25;100280.22;6072417;23;20011;-79
2022/09/26 06:20:31;;;;;;;9.80;5.03;;;;;;;9.63;98.15;100287.00;6098536;23;20009;-78
2022/09/26 06:22:57;;;;;;;9.10;4.30;;;;;;;9.56;97.90;100265.19;6098402;23;20002;-82
2022/09/26 06:25:22;;;;;;;12.88;5.07;;;;;;;9.74;98.59;100277.66;6072693;23;20006;-82
2022/09/26 06:27:48;;;;;;;10.18;5.05;;;;;;;9.70;97.41;100263.28;6098644;23;20012;-83
2022/09/26 06:30:13;;;;;;;11.20;4.22;;;;;;;9.81;97.29;100272.88;6098607;23;20096;-81
2022/09/26 06:32:38;;;;;;;8.80;4.13;;;;;;;9.83;97.05;100260.69;6097965;23;20007;-82
2022/09/26 06:35:05;;;;;;;8.88;4.28;;;;;;;9.93;97.32;100259.16;6098457;23;20038;-78
2022/09/26 06:37:31;;;;;;;12.73;4.55;;;;;;;9.90;97.01;100255.94;6098075;23;20009;-80
2022/09/26 06:39:56;;;;;;;10.32;4.10;;;;;;;9.84;96.92;100231.41;6097981;23;20014;-79
2022/09/26 06:42:21;;;;;;;9.88;3.42;;;;;;;10.02;97.44;100255.91;6098170;23;20044;-79
2022/09/26 06:44:47;;;;;;;9.90;4.25;;;;;;;10.00;96.47;100242.31;6098144;23;20003;-82
2022/09/26 06:47:12;;;;;;;11.45;4.03;;;;;;;9.91;97.20;100204.25;6097957;23;20013;-78
2022/09/26 06:49:38;;;;;;;8.80;3.58;;;;;;;9.97;96.61;100211.56;6071539;23;20033;-81
2022/09/26 06:52:03;;;;;;;6.80;3.47;;;;;;;10.01;96.01;100196.69;6098323;23;20006;-77
2022/09/26 06:54:29;;;;;;;8.32;3.78;;;;;;;10.13;95.55;100216.47;6097716;23;20002;-77
2022/09/26 06:56:55;;;;;;;11.63;3.42;;;;;;;9.80;95.73;100139.72;6071877;23;20010;-79
2022/09/26 06:59:22;;;;;;;7.45;3.42;;;;;;;10.22;95.21;100202.94;6098604;23;19999;-81
2022/09/26 07:01:50;;;;;;;9.25;3.75;;;;;;;10.03;94.58;100151.81;6098022;23;20003;-78
2022/09/26 07:04:26;;;;;;;9.13;3.35;;;;;;;10.30;94.04;100179.16;6097888;23;20368;-82
2022/09/26 07:06:58;;;;;;;7.97;3.10;;;;;;;9.35;93.94;100012.34;6097882;23;20010;-79
2022/09/26 07:09:30;;;;;;;8.30;2.92;;;;;;;10.02;93.97;100116.63;6098313;23;20002;-78
2022/09/26 07:11:55;;;;;;;;;;;;;;;10.52;93.09;100187.03;6098495;23;20188;-77
2022/09/26 07:14:20;;;;;;;7.13;2.80;;;;;;;10.22;92.71;100141.00;6097878;23;19936;-79
2022/09/26 07:16:50;;;;;;;4.78;2.63;;;;;;;10.00;92.59;100105.59;6097529;23;20062;-78
2022/09/26 07:19:17;;;;;;;7.28;2.95;;;;;;;10.52;92.67;100161.22;6097361;23;20006;-79
2022/09/26 07:21:42;;;;;;;5.47;3.10;;;;;;;10.40;93.41;100128.53;6072739;23;20362;-78
2022/09/26 07:24:12;;;;;;;8.82;2.33;;;;;;;10.61;92.37;100165.66;6098026;23;20013;-79
2022/09/26 07:26:38;;;;;;;6.75;2.80;;;;;;;10.63;91.98;100168.16;6097986;23;20006;-78
2022/09/26 07:29:03;;;;;;;8.70;3.60;;;;;;;10.59;91.92;100146.88;6097822;23;20009;-79
2022/09/26 07:31:29;;;;;;;6.45;2.90;;;;;;;10.39;92.43;100119.13;6098000;23;20013;-78
2022/09/26 07:33:55;;;;;;;10.52;2.45;;;;;;;10.67;92.24;100154.06;6097500;23;20077;-79
2022/09/26 07:36:20;;;;;;;9.07;2.92;;;;;;;10.68;92.08;100140.22;6097734;23;20041;-77
2022/09/26 07:38:49;;;;;;;6.50;2.67;;;;;;;10.67;91.80;100155.84;6097410;23;20096;-79
2022/09/26 07:41:15;;;;;;;5.13;2.50;;;;;;;10.42;92.26;100105.19;6097978;23;20013;-79
2022/09/26 07:43:40;;;;;;;6.65;2.70;;;;;;;10.76;92.13;100155.97;6097618;23;20492;-78
2022/09/26 07:51:33;;;;;;;8.93;3.38;;;;;;;10.98;91.39;100144.03;6097394;23;20073;-79
2022/09/26 07:53:58;;;;;;;6.88;2.67;;;;;;;10.97;91.50;100130.28;6097659;23;20369;-78
2022/09/26 07:56:24;;;;;;;6.22;2.60;;;;;;;11.05;91.44;100137.47;6097227;23;20436;-78
2022/09/26 07:58:49;;;;;;;8.32;2.75;;;;;;;11.07;91.84;100133.00;6097380;23;20003;-79
2022/09/26 08:01:17;;;;;;;4.90;2.63;;;;;;;11.09;90.65;100128.53;6097322;23;20006;-79
2022/09/26 08:03:46;;;;;;;8.13;2.55;;;;;;;10.95;91.17;100101.19;6096894;23;20013;-78
2022/09/26 08:06:19;;;;;;;8.00;2.80;;;;;;;11.12;91.32;100113.63;6097711;23;20015;-79
2022/09/26 08:08:47;;;;;;;5.50;2.53;;;;;;;10.99;91.27;100094.81;6071817;23;20038;-78
2022/09/26 08:11:17;;;;;;;6.38;2.40;;;;;;;11.09;90.70;100090.59;6097606;23;20014;-82
2022/09/26 08:13:43;;;;;;;6.28;2.95;;;;;;;11.18;89.79;100094.25;6072749;23;20085;-78
2022/09/26 08:16:10;;;;;;;11.32;3.25;;;;;;;11.28;89.86;100094.34;6097087;23;20006;-78
2022/09/26 08:18:35;;;;;;;5.28;2.50;;;;;;;11.31;90.33;100076.88;6096706;23;20009;-79
2022/09/26 08:21:05;;;;;;;6.78;2.88;;;;;;;11.47;89.76;100087.63;6097289;23;20002;-78
2022/09/26 08:23:31;;;;;;;8.73;3.35;;;;;;;11.50;89.08;100094.31;6097418;23;20006;-78
2022/09/26 08:25:57;;;;;;;7.72;2.85;;;;;;;11.26;90.36;100057.47;6097074;23;20077;-78
2022/09/26 08:28:23;;;;;;;6.65;2.70;;;;;;;11.43;90.25;100085.41;6097056;23;20124;-81
2022/09/26 08:30:48;;;;;;;8.23;2.78;;;;;;;11.39;90.40;100094.34;6097463;23;20034;-80
2022/09/26 08:33:14;;;;;;;7.40;3.25;;;;;;;11.32;90.56;100104.34;6070986;23;20006;-81
2022/09/26 08:35:40;;;;;;;6.95;2.80;;;;;;;11.15;90.79;100071.22;6071163;23;20393;-79
2022/09/26 08:38:07;;;;;;;9.25;2.72;;;;;;;11.18;90.86;100089.06;6096961;23;20389;-81
2022/09/26 08:40:48;;;;;;;7.57;2.60;;;;;;;11.29;91.73;100098.56;6097439;23;20006;-78
2022/09/26 08:43:34;;;;;;;5.55;2.35;;;;;;;11.31;91.17;100086.38;6097439;23;20025;-78
2022/09/26 08:49:47;;;;;;;5.40;2.73;;;;;;;11.51;90.93;100088.22;5983491;24;20044;-80
2022/09/26 08:52:18;;;;;;;7.22;2.90;;;;;;;11.54;90.22;100090.56;5980693;24;20320;-79
2022/09/26 08:54:45;;;;;;;7.60;2.60;;;;;;;11.50;90.25;100071.03;5980625;24;20072;-77
2022/09/26 08:57:38;;;;;;;8.23;2.53;;;;;;;11.60;90.61;100081.47;5980611;24;20047;-80
2022/09/26 09:00:20;;;;;;;5.70;2.50;;;;;;;11.60;90.42;100078.91;5980542;24;20012;-76
2022/09/26 09:02:45;;;;;;;;;;;;;;;11.74;91.24;100083.81;5980983;24;20012;-79
2022/09/26 09:05:22;;;;;;;7.68;3.10;;;;;;;11.64;92.20;100070.78;5980412;24;19951;-79
2022/09/26 09:07:50;;;;;;;6.38;2.55;;;;;;;11.60;93.04;100081.47;5979522;24;20012;-85
2022/09/26 09:10:18;;;;;;;8.00;3.45;;;;;;;11.44;93.95;100061.22;5981587;24;20012;-84
2022/09/26 09:13:14;;;;;;;6.93;2.78;;;;;;;11.54;95.14;100062.13;5980474;24;20015;-80
2022/09/26 09:16:14;;;;;;;7.75;3.35;;;;;;;11.30;96.33;100022.69;5980364;24;20184;-86
2022/09/26 09:18:39;;;;;;;5.80;2.88;;;;;;;11.38;97.08;100049.56;5982538;23;20132;-88
2022/09/26 09:21:38;;;;;;;8.25;3.47;;;;;;;11.30;98.22;100056.28;5980022;24;20450;-84
2022/09/26 09:24:17;;;;;;;10.95;3.72;;;;;;;11.25;99.35;100046.31;5980275;24;20015;-84
2022/09/26 09:27:09;;;;;;;8.90;3.45;;;;;;;10.36;100.00;99876.78;6082095;23;20017;-81
2022/09/26 09:30:03;;;;;;;10.57;3.75;;;;;;;11.40;99.62;100034.75;5980364;24;20414;-84
2022/09/26 09:32:42;;;;;;;9.00;3.40;;;;;;;11.42;99.52;100001.06;5956719;24;20502;-82
2022/09/26 09:35:19;;;;;;;8.07;3.90;;;;;;;11.46;100.00;99976.59;5980117;24;20012;-83
2022/09/26 09:37:53;;;;;;;11.93;3.90;;;;;;;11.57;99.17;99986.06;5980080;24;20078;-82
2022/09/26 09:40:34;;;;;;;8.38;3.47;;;;;;;11.90;98.47;100017.00;5980106;24;20067;-87
2022/09/26 09:43:13;;;;;;;8.30;3.92;;;;;;;11.95;98.74;100008.84;5981688;24;20035;-84
2022/09/26 09:45:50;;;;;;;8.27;3.55;;;;;;;11.76;98.95;99989.63;5982254;24;20016;-83
2022/09/26 09:48:15;;;;;;;7.97;3.47;;;;;;;11.87;98.69;100003.47;5982193;24;20012;-85
2022/09/26 09:50:54;;;;;;;9.13;3.47;;;;;;;11.97;98.89;99996.59;5981823;24;20159;-80
2022/09/26 09:53:44;;;;;;;7.78;3.83;;;;;;;12.04;98.70;99984.81;5982137;24;20072;-86
2022/09/26 09:56:47;;;;;;;11.05;3.50;;;;;;;12.14;98.69;99990.06;5982008;24;20086;-83
2022/09/26 09:59:34;;;;;;;8.82;3.38;;;;;;;12.26;97.46;99981.25;5982422;24;20019;-87
2022/09/26 10:02:18;;;;;;;6.70;3.15;;;;;;;12.38;96.99;99979.41;5982480;24;20012;-90
2022/09/26 10:05:05;;;;;;;8.70;3.08;;;;;;;12.25;96.32;99966.69;5981726;24;20084;-86
2022/09/26 10:07:30;;;;;;;8.77;3.17;;;;;;;12.08;96.43;99944.78;6059216;23;20022;-82
2022/09/26 10:09:58;;;;;;;11.60;4.78;;;;;;;12.12;97.38;99953.97;6069672;23;20094;-79
2022/09/26 10:12:29;;;;;;;8.73;3.70;;;;;;;11.95;97.45;99933.81;6070199;23;20374;-78
2022/09/26 10:15:03;;;;;;;8.65;3.15;;;;;;;12.30;98.46;99959.38;6069615;23;20054;-76
2022/09/26 10:17:30;;;;;;;8.23;3.20;;;;;;;11.36;97.71;99799.91;6069596;23;20003;-81
2022/09/26 10:19:55;;;;;;;10.27;3.72;;;;;;;12.48;97.18;99954.38;6069508;23;19999;-78
2022/09/26 10:22:28;;;;;;;7.90;3.25;;;;;;;12.40;94.95;99933.53;6069888;23;20014;-80
2022/09/26 10:25:15;;;;;;;9.48;3.38;;;;;;;12.15;96.38;99921.81;6069398;23;20003;-79
2022/09/26 10:27:48;;;;;;;6.32;3.22;;;;;;;12.06;97.99;99928.56;6069404;23;20009;-76
2022/09/26 10:30:20;;;;;;;6.97;3.53;;;;;;;11.93;98.23;99938.31;6069760;23;20014;-76
2022/09/26 10:32:55;;;;;;;7.75;3.58;;;;;;;11.71;99.35;99903.84;6069468;23;20003;-82
2022/09/26 10:35:41;;;;;;;9.75;3.20;;;;;;;11.74;99.39;99910.53;6069096;23;20437;-78
2022/09/26 10:38:21;;;;;;;8.10;3.75;;;;;;;11.51;100.00;99875.41;6079537;23;20384;-79
2022/09/26 10:40:54;;;;;;;7.40;3.70;;;;;;;11.82;100.00;99915.09;6098107;23;20028;-84
2022/09/26 10:43:24;;;;;;;7.93;3.90;;;;;;;11.80;100.00;99920.41;6098307;23;20002;-76
2022/09/26 10:45:54;;;;;;;11.40;4.45;;;;;;;11.72;100.00;99913.25;6098038;23;20089;-78
2022/09/26 10:48:24;;;;;;;7.18;3.58;;;;;;;11.68;100.00;99916.19;6098083;23;20002;-77
2022/09/26 10:50:52;;;;;;;9.65;4.13;;;;;;;11.65;100.00;99911.28;6097879;23;20003;-77
2022/09/26 10:53:22;;;;;;;8.55;3.90;;;;;;;11.25;100.00;99852.47;6098090;23;20061;-76
2022/09/26 10:55:59;;;;;;;8.98;4.05;;;;;;;11.09;100.00;99839.97;6097815;23;20006;-77
2022/09/26 10:58:28;;;;;;;8.57;4.75;;;;;;;11.21;100.00;99861.44;6098052;23;20006;-77
2022/09/26 11:00:59;;;;;;;8.48;4.28;;;;;;;11.17;100.00;99871.19;6097937;23;20002;-78
2022/09/26 11:03:42;;;;;;;10.07;4.07;;;;;;;11.25;100.00;99886.06;6098050;23;20433;-77
2022/09/26 11:06:27;;;;;;;8.70;4.45;;;;;;;11.29;100.00;99868.56;6097255;23;20097;-79
2022/09/26 11:09:01;;;;;;;9.95;5.13;;;;;;;11.17;100.00;99876.34;6097846;23;20006;-77
2022/09/26 11:11:32;;;;;;;8.43;4.57;;;;;;;11.29;100.00;99902.16;6097851;23;20006;-80
2022/09/26 11:14:05;;;;;;;9.55;4.50;;;;;;;11.30;100.00;99898.63;6097669;23;20396;-76
2022/09/26 11:16:50;;;;;;;8.30;4.43;;;;;;;11.28;100.00;99892.75;6097983;23;20088;-82
2022/09/26 11:19:27;;;;;;;9.25;4.50;;;;;;;11.29;100.00;99900.38;6097561;23;20007;-84
2022/09/26 11:22:16;;;;;;;8.90;4.25;;;;;;;11.30;100.00;99896.03;6097675;23;20006;-81
2022/09/26 11:25:22;;;;;;;8.70;4.22;;;;;;;11.28;100.00;99892.75;6097343;23;20448;-80
2022/09/26 11:28:04;;;;;;;7.85;4.28;;;;;;;10.95;100.00;99845.44;5981283;24;20035;-79
2022/09/26 11:30:38;;;;;;;7.45;4.22;;;;;;;11.13;100.00;99874.97;5981188;24;20027;-77
2022/09/26 11:33:11;;;;;;;9.35;4.28;;;;;;;11.00;100.00;99865.72;5981222;24;20091;-81
2022/09/26 11:35:58;;;;;;;6.80;3.78;;;;;;;11.07;100.00;99878.03;5981093;24;20371;-83
2022/09/26 11:38:23;;;;;;;6.07;3.70;;;;;;;11.09;100.00;99878.72;5980799;24;20035;-77
2022/09/26 11:41:17;;;;;;;5.15;3.40;;;;;;;11.13;100.00;99884.50;5981238;24;20547;-81
2022/09/26 11:43:57;;;;;;;6.35;3.42;;;;;;;11.14;100.00;99876.59;5981134;24;20016;-82
2022/09/26 11:46:37;;;;;;;7.30;4.20;;;;;;;11.01;100.00;99844.13;5981270;24;20381;-82
2022/09/26 11:49:19;;;;;;;7.63;4.05;;;;;;;11.23;100.00;99872.47;5980962;24;20330;-85
2022/09/26 11:52:02;;;;;;;7.75;4.10;;;;;;;11.25;100.00;99867.16;5980699;24;20015;-80
2022/09/26 11:54:57;;;;;;;6.85;3.78;;;;;;;11.09;100.00;99844.31;5980794;24;20009;-82
2022/09/26 11:57:36;;;;;;;6.70;3.65;;;;;;;11.25;100.00;99869.75;5979639;24;20016;-81
2022/09/26 12:00:06;;;;;;;9.38;4.20;;;;;;;11.28;100.00;99869.50;5981156;24;20023;-83
2022/09/26 12:02:40;;;;;;;10.05;4.07;;;;;;;11.26;100.00;99861.06;6004062;23;20101;-82
2022/09/26 12:05:26;;;;;;;10.18;4.47;;;;;;;11.18;100.00;99851.34;6097208;23;20010;-84